sensor_id;sensor_type;location;lat;lon;timestamp;pressure;altitude;pressure_sealevel;temperature
71960;BMP280;59832;51.146;14.024;2022-09-06T00:00:09;98925.72;;;16.26
71960;BMP280;59832;51.146;14.024;2022-09-06T00:02:36;98926.09;;;16.25
71960;BMP280;59832;51.146;14.024;2022-09-06T00:05:02;98925.69;;;16.23
71960;BMP280;59832;51.146;14.024;2022-09-06T00:07:29;98932.38;;;16.38
71960;BMP280;59832;51.146;14.024;2022-09-06T00:09:55;98923.13;;;16.23
71960;BMP280;59832;51.146;14.024;2022-09-06T00:12:23;98926.78;;;16.18
71960;BMP280;59832;51.146;14.024;2022-09-06T00:14:49;98931.91;;;16.11
71960;BMP280;59832;51.146;14.024;2022-09-06T00:17:16;98921.59;;;16.08
71960;BMP280;59832;51.146;14.024;2022-09-06T00:19:43;98918.28;;;16.07
71960;BMP280;59832;51.146;14.024;2022-09-06T00:22:09;98916.47;;;16.04
71960;BMP280;59832;51.146;14.024;2022-09-06T00:24:35;98913.13;;;15.97
71960;BMP280;59832;51.146;14.024;2022-09-06T00:27:04;98919.78;;;16.05
71960;BMP280;59832;51.146;14.024;2022-09-06T00:29:31;98930.34;;;15.93
71960;BMP280;59832;51.146;14.024;2022-09-06T00:31:58;98918.25;;;16.00
71960;BMP280;59832;51.146;14.024;2022-09-06T00:34:24;98910.56;;;16.00
71960;BMP280;59832;51.146;14.024;2022-09-06T00:36:51;98918.66;;;16.06
71960;BMP280;59832;51.146;14.024;2022-09-06T00:39:17;98910.59;;;16.04
71960;BMP280;59832;51.146;14.024;2022-09-06T00:41:44;98913.50;;;15.99
71960;BMP280;59832;51.146;14.024;2022-09-06T00:44:10;98911.69;;;16.06
71960;BMP280;59832;51.146;14.024;2022-09-06T00:46:37;98907.25;;;16.00
71960;BMP280;59832;51.146;14.024;2022-09-06T00:49:08;98915.00;;;16.03
71960;BMP280;59832;51.146;14.024;2022-09-06T00:51:37;98912.00;;;15.94
71960;BMP280;59832;51.146;14.024;2022-09-06T00:54:04;98911.22;;;15.83
71960;BMP280;59832;51.146;14.024;2022-09-06T00:56:32;98912.75;;;15.95
71960;BMP280;59832;51.146;14.024;2022-09-06T00:58:59;98909.75;;;15.89
71960;BMP280;59832;51.146;14.024;2022-09-06T01:01:26;98903.22;;;15.99
71960;BMP280;59832;51.146;14.024;2022-09-06T01:03:52;98914.13;;;15.81
71960;BMP280;59832;51.146;14.024;2022-09-06T01:06:21;98916.38;;;15.87
71960;BMP280;59832;51.146;14.024;2022-09-06T01:08:54;98912.66;;;15.80
71960;BMP280;59832;51.146;14.024;2022-09-06T01:14:19;98918.84;;;15.69
71960;BMP280;59832;51.146;14.024;2022-09-06T01:16:50;98919.91;;;15.64
71960;BMP280;59832;51.146;14.024;2022-09-06T01:32:28;98909.00;;;15.81
71960;BMP280;59832;51.146;14.024;2022-09-06T01:35:39;98907.50;;;15.70
71960;BMP280;59832;51.146;14.024;2022-09-06T01:37:44;98905.28;;;15.68
71960;BMP280;59832;51.146;14.024;2022-09-06T01:40:11;98906.72;;;15.66
71960;BMP280;59832;51.146;14.024;2022-09-06T01:42:37;98917.31;;;15.54
71960;BMP280;59832;51.146;14.024;2022-09-06T01:45:07;98916.16;;;15.51
71960;BMP280;59832;51.146;14.024;2022-09-06T01:47:36;98905.88;;;15.48
71960;BMP280;59832;51.146;14.024;2022-09-06T01:52:38;98907.69;;;15.47
71960;BMP280;59832;51.146;14.024;2022-09-06T02:00:03;98905.13;;;15.44
71960;BMP280;59832;51.146;14.024;2022-09-06T02:02:47;98904.44;;;15.50
71960;BMP280;59832;51.146;14.024;2022-09-06T02:05:30;98906.16;;;15.36
71960;BMP280;59832;51.146;14.024;2022-09-06T02:07:58;98903.94;;;15.34
71960;BMP280;59832;51.146;14.024;2022-09-06T02:10:29;98901.69;;;15.25
71960;BMP280;59832;51.146;14.024;2022-09-06T02:12:58;98903.16;;;15.30
71960;BMP280;59832;51.146;14.024;2022-09-06T02:15:27;98903.56;;;15.32
71960;BMP280;59832;51.146;14.024;2022-09-06T02:20:40;98895.75;;;15.18
71960;BMP280;59832;51.146;14.024;2022-09-06T02:23:07;98895.00;;;15.14
71960;BMP280;59832;51.146;14.024;2022-09-06T02:25:39;98897.22;;;15.15
71960;BMP280;59832;51.146;14.024;2022-09-06T02:28:07;98897.91;;;15.12
71960;BMP280;59832;51.146;14.024;2022-09-06T02:30:35;98907.06;;;15.13
71960;BMP280;59832;51.146;14.024;2022-09-06T02:33:05;98903.41;;;15.11
71960;BMP280;59832;51.146;14.024;2022-09-06T02:35:40;98901.53;;;15.08
71960;BMP280;59832;51.146;14.024;2022-09-06T02:38:07;98904.13;;;15.08
71960;BMP280;59832;51.146;14.024;2022-09-06T02:40:34;98916.81;;;14.94
71960;BMP280;59832;51.146;14.024;2022-09-06T02:43:00;98913.13;;;14.95
71960;BMP280;59832;51.146;14.024;2022-09-06T02:45:26;98906.91;;;14.96
71960;BMP280;59832;51.146;14.024;2022-09-06T02:47:53;98901.94;;;15.13
71960;BMP280;59832;51.146;14.024;2022-09-06T02:50:19;98899.69;;;15.05
71960;BMP280;59832;51.146;14.024;2022-09-06T02:52:45;98898.94;;;15.04
71960;BMP280;59832;51.146;14.024;2022-09-06T02:55:12;98908.81;;;14.99
71960;BMP280;59832;51.146;14.024;2022-09-06T02:57:38;98901.78;;;14.96
71960;BMP280;59832;51.146;14.024;2022-09-06T03:00:04;98900.72;;;14.93
71960;BMP280;59832;51.146;14.024;2022-09-06T03:02:31;98906.97;;;14.99
71960;BMP280;59832;51.146;14.024;2022-09-06T03:04:57;98901.44;;;14.97
71960;BMP280;59832;51.146;14.024;2022-09-06T03:07:24;98896.28;;;14.94
71960;BMP280;59832;51.146;14.024;2022-09-06T03:09:50;98895.53;;;14.90
71960;BMP280;59832;51.146;14.024;2022-09-06T03:12:16;98897.75;;;14.95
71960;BMP280;59832;51.146;14.024;2022-09-06T03:14:43;98896.97;;;14.87
71960;BMP280;59832;51.146;14.024;2022-09-06T03:17:09;98893.31;;;14.88
71960;BMP280;59832;51.146;14.024;2022-09-06T03:19:35;98900.31;;;14.91
71960;BMP280;59832;51.146;14.024;2022-09-06T03:22:02;98885.72;;;14.99
71960;BMP280;59832;51.146;14.024;2022-09-06T03:24:28;98888.66;;;15.01
71960;BMP280;59832;51.146;14.024;2022-09-06T03:26:54;98886.00;;;14.90
71960;BMP280;59832;51.146;14.024;2022-09-06T03:29:21;98882.03;;;14.93
71960;BMP280;59832;51.146;14.024;2022-09-06T03:31:47;98884.94;;;14.95
71960;BMP280;59832;51.146;14.024;2022-09-06T03:34:13;98878.31;;;14.90
71960;BMP280;59832;51.146;14.024;2022-09-06T03:36:40;98889.13;;;14.69
71960;BMP280;59832;51.146;14.024;2022-09-06T03:39:06;98886.81;;;14.57
71960;BMP280;59832;51.146;14.024;2022-09-06T03:41:32;98892.09;;;14.75
71960;BMP280;59832;51.146;14.024;2022-09-06T03:43:59;98878.78;;;14.62
71960;BMP280;59832;51.146;14.024;2022-09-06T03:46:25;98872.19;;;14.58
71960;BMP280;59832;51.146;14.024;2022-09-06T03:48:58;98875.88;;;14.64
71960;BMP280;59832;51.146;14.024;2022-09-06T03:51:24;98875.00;;;14.49
71960;BMP280;59832;51.146;14.024;2022-09-06T03:53:51;98877.31;;;14.61
71960;BMP280;59832;51.146;14.024;2022-09-06T03:56:17;98882.50;;;14.65
71960;BMP280;59832;51.146;14.024;2022-09-06T03:58:44;98881.75;;;14.64
71960;BMP280;59832;51.146;14.024;2022-09-06T04:01:10;98877.22;;;14.54
71960;BMP280;59832;51.146;14.024;2022-09-06T04:03:37;98883.84;;;14.55
71960;BMP280;59832;51.146;14.024;2022-09-06T04:06:04;98884.59;;;14.56
71960;BMP280;59832;51.146;14.024;2022-09-06T04:08:31;98876.84;;;14.52
71960;BMP280;59832;51.146;14.024;2022-09-06T04:10:57;98875.78;;;14.53
71960;BMP280;59832;51.146;14.024;2022-09-06T04:13:25;98878.63;;;14.48
71960;BMP280;59832;51.146;14.024;2022-09-06T04:15:51;98871.38;;;14.54
71960;BMP280;59832;51.146;14.024;2022-09-06T04:18:18;98872.94;;;14.62
71960;BMP280;59832;51.146;14.024;2022-09-06T04:20:48;98865.88;;;14.52
71960;BMP280;59832;51.146;14.024;2022-09-06T04:23:15;98860.28;;;14.43
71960;BMP280;59832;51.146;14.024;2022-09-06T04:25:44;98853.00;;;14.45
71960;BMP280;59832;51.146;14.024;2022-09-06T04:28:10;98851.16;;;14.45
71960;BMP280;59832;51.146;14.024;2022-09-06T04:30:37;98854.13;;;14.47
71960;BMP280;59832;51.146;14.024;2022-09-06T04:33:03;98851.94;;;14.49
71960;BMP280;59832;51.146;14.024;2022-09-06T04:35:29;98853.78;;;14.49
71960;BMP280;59832;51.146;14.024;2022-09-06T04:37:59;98848.22;;;14.43
71960;BMP280;59832;51.146;14.024;2022-09-06T04:40:25;98848.66;;;14.49
71960;BMP280;59832;51.146;14.024;2022-09-06T04:42:51;98845.72;;;14.47
71960;BMP280;59832;51.146;14.024;2022-09-06T04:45:18;98843.50;;;14.45
71960;BMP280;59832;51.146;14.024;2022-09-06T04:47:44;98842.75;;;14.45
71960;BMP280;59832;51.146;14.024;2022-09-06T04:50:10;98836.31;;;14.61
71960;BMP280;59832;51.146;14.024;2022-09-06T04:52:37;98838.13;;;14.61
71960;BMP280;59832;51.146;14.024;2022-09-06T04:55:03;98844.34;;;14.56
71960;BMP280;59832;51.146;14.024;2022-09-06T04:57:30;98841.50;;;14.68
71960;BMP280;59832;51.146;14.024;2022-09-06T04:59:57;98832.13;;;14.83
71960;BMP280;59832;51.146;14.024;2022-09-06T05:02:23;98839.13;;;14.90
71960;BMP280;59832;51.146;14.024;2022-09-06T05:04:50;98833.72;;;14.98
71960;BMP280;59832;51.146;14.024;2022-09-06T05:07:18;98840.69;;;15.01
71960;BMP280;59832;51.146;14.024;2022-09-06T05:09:44;98842.59;;;15.08
71960;BMP280;59832;51.146;14.024;2022-09-06T05:12:11;98845.84;;;15.05
71960;BMP280;59832;51.146;14.024;2022-09-06T05:14:37;98851.75;;;15.09
71960;BMP280;59832;51.146;14.024;2022-09-06T05:17:03;98851.16;;;15.26
71960;BMP280;59832;51.146;14.024;2022-09-06T05:19:30;98848.56;;;15.29
71960;BMP280;59832;51.146;14.024;2022-09-06T05:21:56;98856.22;;;15.19
71960;BMP280;59832;51.146;14.024;2022-09-06T05:24:22;98848.09;;;15.13
71960;BMP280;59832;51.146;14.024;2022-09-06T05:26:49;98850.66;;;15.13
71960;BMP280;59832;51.146;14.024;2022-09-06T05:29:15;98856.28;;;15.29
71960;BMP280;59832;51.146;14.024;2022-09-06T05:31:41;98861.78;;;15.32
71960;BMP280;59832;51.146;14.024;2022-09-06T05:34:08;98865.84;;;15.33
71960;BMP280;59832;51.146;14.024;2022-09-06T05:36:35;98856.00;;;15.42
71960;BMP280;59832;51.146;14.024;2022-09-06T05:39:03;98854.59;;;15.51
71960;BMP280;59832;51.146;14.024;2022-09-06T05:41:30;98864.50;;;15.53
71960;BMP280;59832;51.146;14.024;2022-09-06T05:43:57;98856.81;;;15.56
71960;BMP280;59832;51.146;14.024;2022-09-06T05:46:23;98853.19;;;15.61
71960;BMP280;59832;51.146;14.024;2022-09-06T05:48:52;98852.88;;;15.80
71960;BMP280;59832;51.146;14.024;2022-09-06T05:51:19;98853.34;;;16.00
71960;BMP280;59832;51.146;14.024;2022-09-06T05:53:46;98849.41;;;16.20
71960;BMP280;59832;51.146;14.024;2022-09-06T05:56:12;98838.81;;;16.57
71960;BMP280;59832;51.146;14.024;2022-09-06T05:58:39;98841.75;;;16.98
71960;BMP280;59832;51.146;14.024;2022-09-06T06:01:16;98839.91;;;17.05
71960;BMP280;59832;51.146;14.024;2022-09-06T06:03:48;98833.25;;;17.22
71960;BMP280;59832;51.146;14.024;2022-09-06T06:06:15;98835.03;;;17.35
71960;BMP280;59832;51.146;14.024;2022-09-06T06:08:41;98842.38;;;17.44
71960;BMP280;59832;51.146;14.024;2022-09-06T06:11:08;98840.94;;;17.29
71960;BMP280;59832;51.146;14.024;2022-09-06T06:13:34;98842.41;;;17.30
71960;BMP280;59832;51.146;14.024;2022-09-06T06:16:07;98849.78;;;17.31
71960;BMP280;59832;51.146;14.024;2022-09-06T06:18:34;98845.38;;;17.11
71960;BMP280;59832;51.146;14.024;2022-09-06T06:21:11;98843.91;;;17.10
71960;BMP280;59832;51.146;14.024;2022-09-06T06:23:38;98843.91;;;17.10
71960;BMP280;59832;51.146;14.024;2022-09-06T06:26:05;98843.91;;;17.13
71960;BMP280;59832;51.146;14.024;2022-09-06T06:28:32;98842.06;;;17.21
71960;BMP280;59832;51.146;14.024;2022-09-06T06:30:58;98839.88;;;17.23
71960;BMP280;59832;51.146;14.024;2022-09-06T06:33:24;98838.78;;;17.13
71960;BMP280;59832;51.146;14.024;2022-09-06T06:36:17;98847.22;;;17.31
71960;BMP280;59832;51.146;14.024;2022-09-06T06:38:44;98853.44;;;17.23
71960;BMP280;59832;51.146;14.024;2022-09-06T06:41:11;98840.63;;;17.13
71960;BMP280;59832;51.146;14.024;2022-09-06T06:43:38;98845.31;;;17.50
71960;BMP280;59832;51.146;14.024;2022-09-06T06:46:08;98833.94;;;17.51
71960;BMP280;59832;51.146;14.024;2022-09-06T06:48:35;98823.19;;;17.63
71960;BMP280;59832;51.146;14.024;2022-09-06T06:51:02;98828.41;;;17.38
71960;BMP280;59832;51.146;14.024;2022-09-06T06:53:28;98835.78;;;17.47
71960;BMP280;59832;51.146;14.024;2022-09-06T06:55:55;98843.81;;;17.56
71960;BMP280;59832;51.146;14.024;2022-09-06T06:58:21;98841.94;;;17.70
71960;BMP280;59832;51.146;14.024;2022-09-06T07:00:47;98833.69;;;17.96
71960;BMP280;59832;51.146;14.024;2022-09-06T07:03:14;98825.66;;;17.87
71960;BMP280;59832;51.146;14.024;2022-09-06T07:05:40;98826.63;;;18.11
71960;BMP280;59832;51.146;14.024;2022-09-06T07:08:32;98829.91;;;18.19
71960;BMP280;59832;51.146;14.024;2022-09-06T07:10:58;98842.50;;;18.10
71960;BMP280;59832;51.146;14.024;2022-09-06T07:13:24;98832.81;;;18.28
71960;BMP280;59832;51.146;14.024;2022-09-06T07:15:51;98840.13;;;18.33
71960;BMP280;59832;51.146;14.024;2022-09-06T07:18:17;98838.16;;;18.51
71960;BMP280;59832;51.146;14.024;2022-09-06T07:20:44;98839.06;;;18.23
71960;BMP280;59832;51.146;14.024;2022-09-06T07:23:30;98837.22;;;18.27
71960;BMP280;59832;51.146;14.024;2022-09-06T07:26:17;98841.16;;;18.39
71960;BMP280;59832;51.146;14.024;2022-09-06T07:28:44;98846.88;;;18.64
71960;BMP280;59832;51.146;14.024;2022-09-06T07:31:11;98847.13;;;18.80
71960;BMP280;59832;51.146;14.024;2022-09-06T07:33:58;98849.69;;;18.80
71960;BMP280;59832;51.146;14.024;2022-09-06T07:36:24;98847.63;;;19.05
71960;BMP280;59832;51.146;14.024;2022-09-06T07:38:50;98850.13;;;19.13
71960;BMP280;59832;51.146;14.024;2022-09-06T07:41:17;98849.00;;;19.14
71960;BMP280;59832;51.146;14.024;2022-09-06T07:43:44;98847.38;;;19.27
71960;BMP280;59832;51.146;14.024;2022-09-06T07:46:11;98848.50;;;19.26
71960;BMP280;59832;51.146;14.024;2022-09-06T07:48:39;98841.13;;;19.28
71960;BMP280;59832;51.146;14.024;2022-09-06T07:53:36;98841.47;;;19.30
71960;BMP280;59832;51.146;14.024;2022-09-06T07:56:04;98852.28;;;19.18
71960;BMP280;59832;51.146;14.024;2022-09-06T07:58:31;98852.91;;;19.29
71960;BMP280;59832;51.146;14.024;2022-09-06T08:03:43;98846.06;;;19.12
71960;BMP280;59832;51.146;14.024;2022-09-06T08:06:10;98844.06;;;19.26
71960;BMP280;59832;51.146;14.024;2022-09-06T08:08:37;98842.50;;;19.36
71960;BMP280;59832;51.146;14.024;2022-09-06T08:11:25;98843.03;;;19.24
71960;BMP280;59832;51.146;14.024;2022-09-06T08:13:52;98850.03;;;19.23
71960;BMP280;59832;51.146;14.024;2022-09-06T08:16:20;98861.78;;;19.24
71960;BMP280;59832;51.146;14.024;2022-09-06T08:18:50;98857.94;;;19.39
71960;BMP280;59832;51.146;14.024;2022-09-06T08:21:17;98848.09;;;19.31
71960;BMP280;59832;51.146;14.024;2022-09-06T08:23:47;98847.75;;;19.29
71960;BMP280;59832;51.146;14.024;2022-09-06T08:26:14;98851.06;;;19.29
71960;BMP280;59832;51.146;14.024;2022-09-06T08:28:40;98847.75;;;19.29
71960;BMP280;59832;51.146;14.024;2022-09-06T08:31:08;98856.97;;;19.26
71960;BMP280;59832;51.146;14.024;2022-09-06T08:33:34;98849.59;;;19.28
71960;BMP280;59832;51.146;14.024;2022-09-06T08:36:01;98852.69;;;19.13
71960;BMP280;59832;51.146;14.024;2022-09-06T08:38:27;98851.31;;;19.04
71960;BMP280;59832;51.146;14.024;2022-09-06T08:40:54;98845.19;;;19.25
71960;BMP280;59832;51.146;14.024;2022-09-06T08:43:30;98850.66;;;19.31
71960;BMP280;59832;51.146;14.024;2022-09-06T08:45:56;98861.09;;;19.24
71960;BMP280;59832;51.146;14.024;2022-09-06T08:48:23;98853.75;;;19.19
71960;BMP280;59832;51.146;14.024;2022-09-06T08:51:00;98848.66;;;19.15
71960;BMP280;59832;51.146;14.024;2022-09-06T08:53:31;98843.41;;;19.19
71960;BMP280;59832;51.146;14.024;2022-09-06T08:56:09;98844.06;;;19.26
71960;BMP280;59832;51.146;14.024;2022-09-06T09:01:10;98846.38;;;19.51
71960;BMP280;59832;51.146;14.024;2022-09-06T09:03:38;98828.31;;;19.51
71960;BMP280;59832;51.146;14.024;2022-09-06T09:06:05;98825.72;;;19.51
71960;BMP280;59832;51.146;14.024;2022-09-06T09:11:03;98826.09;;;19.80
71960;BMP280;59832;51.146;14.024;2022-09-06T09:15:59;98831.56;;;19.85
71960;BMP280;59832;51.146;14.024;2022-09-06T09:18:27;98824.44;;;19.93
71960;BMP280;59832;51.146;14.024;2022-09-06T09:20:55;98823.38;;;19.90
71960;BMP280;59832;51.146;14.024;2022-09-06T09:23:22;98821.25;;;20.08
71960;BMP280;59832;51.146;14.024;2022-09-06T09:25:49;98808.34;;;20.08
71960;BMP280;59832;51.146;14.024;2022-09-06T09:28:19;98816.97;;;20.21
71960;BMP280;59832;51.146;14.024;2022-09-06T09:30:51;98816.75;;;20.12
71960;BMP280;59832;51.146;14.024;2022-09-06T09:35:46;98814.06;;;20.19
71960;BMP280;59832;51.146;14.024;2022-09-06T09:38:27;98820.88;;;20.33
71960;BMP280;59832;51.146;14.024;2022-09-06T09:41:01;98810.66;;;20.49
71960;BMP280;59832;51.146;14.024;2022-09-06T09:43:29;98814.34;;;20.48
71960;BMP280;59832;51.146;14.024;2022-09-06T09:46:07;98805.94;;;20.64
71960;BMP280;59832;51.146;14.024;2022-09-06T09:48:34;98808.81;;;20.89
71960;BMP280;59832;51.146;14.024;2022-09-06T09:53:53;98799.22;;;20.70
71960;BMP280;59832;51.146;14.024;2022-09-06T09:56:24;98795.06;;;20.72
71960;BMP280;59832;51.146;14.024;2022-09-06T09:58:52;98794.78;;;20.47
71960;BMP280;59832;51.146;14.024;2022-09-06T10:01:25;98790.00;;;20.46
71960;BMP280;59832;51.146;14.024;2022-09-06T10:03:52;98790.13;;;20.39
71960;BMP280;59832;51.146;14.024;2022-09-06T10:06:45;98787.03;;;20.47
71960;BMP280;59832;51.146;14.024;2022-09-06T10:09:35;98778.59;;;20.43
71960;BMP280;59832;51.146;14.024;2022-09-06T10:12:02;98781.91;;;20.24
71960;BMP280;59832;51.146;14.024;2022-09-06T10:14:32;98775.53;;;20.29
71960;BMP280;59832;51.146;14.024;2022-09-06T10:17:04;98775.22;;;20.46
71960;BMP280;59832;51.146;14.024;2022-09-06T10:19:38;98774.09;;;20.47
71960;BMP280;59832;51.146;14.024;2022-09-06T10:22:11;98774.69;;;20.55
71960;BMP280;59832;51.146;14.024;2022-09-06T10:25:02;98770.25;;;20.36
71960;BMP280;59832;51.146;14.024;2022-09-06T10:27:31;98767.94;;;20.41
71960;BMP280;59832;51.146;14.024;2022-09-06T10:30:03;98765.47;;;20.34
71960;BMP280;59832;51.146;14.024;2022-09-06T10:32:40;98771.28;;;20.38
71960;BMP280;59832;51.146;14.024;2022-09-06T10:35:15;98767.16;;;20.44
71960;BMP280;59832;51.146;14.024;2022-09-06T10:40:11;98762.63;;;20.48
71960;BMP280;59832;51.146;14.024;2022-09-06T10:42:45;98762.78;;;20.41
71960;BMP280;59832;51.146;14.024;2022-09-06T10:45:16;98763.53;;;20.38
71960;BMP280;59832;51.146;14.024;2022-09-06T10:55:51;98761.38;;;20.76
71960;BMP280;59832;51.146;14.024;2022-09-06T10:58:27;98758.06;;;20.75
71960;BMP280;59832;51.146;14.024;2022-09-06T11:01:33;98764.91;;;20.86
71960;BMP280;59832;51.146;14.024;2022-09-06T11:04:01;98763.50;;;20.81
71960;BMP280;59832;51.146;14.024;2022-09-06T11:06:42;98748.31;;;20.83
71960;BMP280;59832;51.146;14.024;2022-09-06T11:11:42;98754.66;;;21.18
71960;BMP280;59832;51.146;14.024;2022-09-06T11:14:12;98759.69;;;21.57
71960;BMP280;59832;51.146;14.024;2022-09-06T11:16:50;98746.09;;;21.37
71960;BMP280;59832;51.146;14.024;2022-09-06T11:19:22;98744.41;;;21.30
71960;BMP280;59832;51.146;14.024;2022-09-06T11:21:59;98752.56;;;21.29
71960;BMP280;59832;51.146;14.024;2022-09-06T11:29:29;98730.47;;;21.24
71960;BMP280;59832;51.146;14.024;2022-09-06T11:31:58;98736.47;;;21.21
71960;BMP280;59832;51.146;14.024;2022-09-06T11:34:42;98728.94;;;21.27
71960;BMP280;59832;51.146;14.024;2022-09-06T11:37:24;98727.06;;;21.11
71960;BMP280;59832;51.146;14.024;2022-09-06T11:53:21;98720.25;;;23.31
71960;BMP280;59832;51.146;14.024;2022-09-06T11:56:08;98716.34;;;23.27
71960;BMP280;59832;51.146;14.024;2022-09-06T11:58:43;98716.91;;;23.43
71960;BMP280;59832;51.146;14.024;2022-09-06T12:06:35;98708.53;;;23.14
71960;BMP280;59832;51.146;14.024;2022-09-06T12:09:10;98712.66;;;23.24
71960;BMP280;59832;51.146;14.024;2022-09-06T12:11:48;98709.00;;;23.47
71960;BMP280;59832;51.146;14.024;2022-09-06T12:14:28;98701.75;;;23.76
71960;BMP280;59832;51.146;14.024;2022-09-06T12:27:21;98685.84;;;23.52
71960;BMP280;59832;51.146;14.024;2022-09-06T12:29:56;98677.41;;;23.48
71960;BMP280;59832;51.146;14.024;2022-09-06T12:32:26;98673.91;;;23.64
71960;BMP280;59832;51.146;14.024;2022-09-06T12:34:54;98667.94;;;23.89
71960;BMP280;59832;51.146;14.024;2022-09-06T12:37:54;98672.88;;;23.96
71960;BMP280;59832;51.146;14.024;2022-09-06T12:40:20;98667.19;;;23.88
71960;BMP280;59832;51.146;14.024;2022-09-06T12:42:48;98679.31;;;23.91
71960;BMP280;59832;51.146;14.024;2022-09-06T12:45:17;98674.78;;;23.82
71960;BMP280;59832;51.146;14.024;2022-09-06T12:47:43;98671.59;;;23.78
71960;BMP280;59832;51.146;14.024;2022-09-06T12:52:43;98669.56;;;23.61
71960;BMP280;59832;51.146;14.024;2022-09-06T12:55:22;98670.25;;;23.74
71960;BMP280;59832;51.146;14.024;2022-09-06T12:57:50;98669.03;;;23.66
71960;BMP280;59832;51.146;14.024;2022-09-06T13:00:17;98662.94;;;23.60
71960;BMP280;59832;51.146;14.024;2022-09-06T13:05:20;98670.22;;;23.86
71960;BMP280;59832;51.146;14.024;2022-09-06T13:07:51;98659.78;;;23.65
71960;BMP280;59832;51.146;14.024;2022-09-06T13:10:18;98668.25;;;23.56
71960;BMP280;59832;51.146;14.024;2022-09-06T13:12:47;98668.88;;;23.48
71960;BMP280;59832;51.146;14.024;2022-09-06T13:15:16;98659.22;;;23.48
71960;BMP280;59832;51.146;14.024;2022-09-06T13:17:44;98653.22;;;23.39
71960;BMP280;59832;51.146;14.024;2022-09-06T13:20:12;98647.00;;;23.36
71960;BMP280;59832;51.146;14.024;2022-09-06T13:22:46;98642.94;;;23.35
71960;BMP280;59832;51.146;14.024;2022-09-06T13:27:46;98654.97;;;23.07
71960;BMP280;59832;51.146;14.024;2022-09-06T13:30:29;98653.94;;;23.05
71960;BMP280;59832;51.146;14.024;2022-09-06T13:32:55;98652.88;;;23.02
71960;BMP280;59832;51.146;14.024;2022-09-06T13:35:22;98641.38;;;22.78
71960;BMP280;59832;51.146;14.024;2022-09-06T13:37:49;98645.22;;;22.74
71960;BMP280;59832;51.146;14.024;2022-09-06T13:43:21;98653.09;;;22.57
71960;BMP280;59832;51.146;14.024;2022-09-06T13:45:56;98661.41;;;22.52
71960;BMP280;59832;51.146;14.024;2022-09-06T13:48:28;98660.22;;;22.28
71960;BMP280;59832;51.146;14.024;2022-09-06T13:50:54;98663.72;;;22.34
71960;BMP280;59832;51.146;14.024;2022-09-06T13:53:21;98665.41;;;22.28
71960;BMP280;59832;51.146;14.024;2022-09-06T13:55:47;98662.59;;;22.23
71960;BMP280;59832;51.146;14.024;2022-09-06T13:58:14;98665.69;;;22.18
71960;BMP280;59832;51.146;14.024;2022-09-06T14:00:40;98664.97;;;22.30
71960;BMP280;59832;51.146;14.024;2022-09-06T14:03:07;98664.88;;;22.21
71960;BMP280;59832;51.146;14.024;2022-09-06T14:05:34;98663.50;;;22.16
71960;BMP280;59832;51.146;14.024;2022-09-06T14:08:04;98669.28;;;22.08
71960;BMP280;59832;51.146;14.024;2022-09-06T14:10:30;98672.50;;;22.12
71960;BMP280;59832;51.146;14.024;2022-09-06T14:12:56;98665.53;;;22.09
71960;BMP280;59832;51.146;14.024;2022-09-06T14:15:23;98669.56;;;21.97
71960;BMP280;59832;51.146;14.024;2022-09-06T14:17:50;98692.56;;;21.95
71960;BMP280;59832;51.146;14.024;2022-09-06T14:20:17;98716.97;;;21.81
71960;BMP280;59832;51.146;14.024;2022-09-06T14:22:43;98722.44;;;20.83
71960;BMP280;59832;51.146;14.024;2022-09-06T14:25:09;98741.69;;;20.19
71960;BMP280;59832;51.146;14.024;2022-09-06T14:27:36;98756.91;;;19.41
71960;BMP280;59832;51.146;14.024;2022-09-06T14:30:02;98768.31;;;18.76
71960;BMP280;59832;51.146;14.024;2022-09-06T14:32:29;98775.75;;;18.26
71960;BMP280;59832;51.146;14.024;2022-09-06T14:34:56;98782.56;;;17.99
71960;BMP280;59832;51.146;14.024;2022-09-06T14:37:22;98788.94;;;17.73
71960;BMP280;59832;51.146;14.024;2022-09-06T14:39:48;98784.63;;;17.59
71960;BMP280;59832;51.146;14.024;2022-09-06T14:42:15;98782.44;;;17.43
71960;BMP280;59832;51.146;14.024;2022-09-06T14:44:41;98777.69;;;17.46
71960;BMP280;59832;51.146;14.024;2022-09-06T14:47:08;98772.91;;;17.51
71960;BMP280;59832;51.146;14.024;2022-09-06T14:49:34;98767.63;;;17.72
71960;BMP280;59832;51.146;14.024;2022-09-06T14:52:01;98756.94;;;17.77
71960;BMP280;59832;51.146;14.024;2022-09-06T14:54:27;98741.44;;;17.84
71960;BMP280;59832;51.146;14.024;2022-09-06T14:56:54;98724.84;;;17.92
71960;BMP280;59832;51.146;14.024;2022-09-06T14:59:21;98726.19;;;18.08
71960;BMP280;59832;51.146;14.024;2022-09-06T15:01:47;98717.34;;;18.12
71960;BMP280;59832;51.146;14.024;2022-09-06T15:04:14;98711.03;;;18.17
71960;BMP280;59832;51.146;14.024;2022-09-06T15:06:40;98709.88;;;18.21
71960;BMP280;59832;51.146;14.024;2022-09-06T15:09:12;98701.84;;;18.19
71960;BMP280;59832;51.146;14.024;2022-09-06T15:11:40;98696.31;;;18.17
71960;BMP280;59832;51.146;14.024;2022-09-06T15:14:10;98707.69;;;18.23
71960;BMP280;59832;51.146;14.024;2022-09-06T15:16:38;98707.59;;;18.34
71960;BMP280;59832;51.146;14.024;2022-09-06T15:19:04;98706.31;;;18.49
71960;BMP280;59832;51.146;14.024;2022-09-06T15:21:30;98710.81;;;18.41
71960;BMP280;59832;51.146;14.024;2022-09-06T15:23:57;98715.22;;;18.44
71960;BMP280;59832;51.146;14.024;2022-09-06T15:26:25;98709.44;;;18.33
71960;BMP280;59832;51.146;14.024;2022-09-06T15:28:51;98712.88;;;18.20
71960;BMP280;59832;51.146;14.024;2022-09-06T15:31:18;98714.78;;;18.12
71960;BMP280;59832;51.146;14.024;2022-09-06T15:33:44;98693.22;;;18.36
71960;BMP280;59832;51.146;14.024;2022-09-06T15:36:14;98685.59;;;18.22
71960;BMP280;59832;51.146;14.024;2022-09-06T15:38:42;98687.81;;;18.24
71960;BMP280;59832;51.146;14.024;2022-09-06T15:41:10;98694.47;;;18.18
71960;BMP280;59832;51.146;14.024;2022-09-06T15:43:37;98689.31;;;18.18
71960;BMP280;59832;51.146;14.024;2022-09-06T15:46:06;98695.22;;;18.18
71960;BMP280;59832;51.146;14.024;2022-09-06T15:49:07;98690.78;;;18.15